Worden, MT (59088)

9:11 PM MDT on August 27, 2014 (GMT -0600)
Lockwood | Change Station
CLOSE
Current Station
Personal Weather Station
Location: Billings, MT
Elevation: 3202 ft
Nearby Weather Stations

Elev 3202 ft 45.82 °N, 108.39 °W | Updated 17 seconds ago

Partly Cloudy
Partly Cloudy
72.5 °F
Feels Like 77 °F
N
0.0
Wind Variable Wind from WSW
Gusts 0.0 mph

Today
High -- | Low -- °F
--% Chance of Precip.
Yesterday
High -- | Low -- °F
Precip. -- in
6:27 AM 8:00 PM
Waxing Crescent, 6% visible
Pressure 29.95 in
Visibility 10.0 miles
Clouds Few 24000 ft
Heat Index 77 °F
Dew Point 54 °F
Humidity 52%
Rainfall 0.00 in
Snow Depth Not available.
UV 0 out of 12
Pollen 8.50 out of 12
Air Quality Not available.
Flu Activity Not available.
METAR KBIL 280253Z 00000KT 10SM FEW240 24/08 A3002 RMK AO2 SLP140 T02440078 53006

More Conditions Fewer Conditions

Pressure 29.95 in
Visibility 10.0 miles
Clouds Few 24000 ft
Heat Index 77 °F
Dew Point 54 °F
Humidity 52%
Rainfall 0.00 in
Snow Depth Not available.
UV 0 out of 12
Pollen 8.50 out of 12
Air Quality Not available.
Flu Activity Not available.
METAR KBIL 280253Z 00000KT 10SM FEW240 24/08 A3002 RMK AO2 SLP140 T02440078 53006

More Conditions Fewer Conditions

10-Day Weather Forecast

Almanac

Astronomy

Aug. 27, 2014 Rise Set
Actual Time 6:27 AM MDT 8:00 PM MDT
Civil Twilight 5:55 AM MDT 8:31 PM MDT
Nautical Twilight 5:17 AM MDT 9:09 PM MDT
Astronomical Twilight 4:36 AM MDT 9:50 PM MDT
Moon 8:35 AM MDT (8/27) 8:43 PM MDT (8/27)
Length of Visible Light 14h 35m
Length of Day
13h 32m
Tomorrow will be 3m 5s shorter.
Waxing Crescent, 6% of the Moon is Illuminated
Today
Waxing Crescent
Sep 2
First Quarter
Sep 8
Full
Sep 15
Last Quarter
Sep 24
New

Today's Extremes

State Highs State Lows

Community

WunderPhotos

Upload Photos

1,747,892 photos uploaded!

Nearby

Snow Depth

Station Depth Elevation
Cole Creek 0 in 7850 ft
Crystal Lake 0 in 6050 ft
White Mill 1 in 8700 ft
Porcupine 0 in 6500 ft
Northeast Entrance 0 in 7350 ft

Earthquake Activity

City Distance Mag. Time & Date
No recent earthquake activity has been reported nearby.
Minimum magnitude displayed is 2.5.

Coastal Water Temperatures

Place Temperature
No Stations Reporting

Nearby Weather Stations